createdAt,value
2019-05-01T00:02:37.103Z,66.95
2019-05-01T00:05:11.462Z,66.56
2019-05-01T00:07:41.918Z,65.01
2019-05-01T00:10:11.730Z,65.52
2019-05-01T00:12:41.551Z,66.75
2019-05-01T00:15:12.641Z,66.92
2019-05-01T00:17:42.165Z,69.85
2019-05-01T00:20:12.131Z,67.39
2019-05-01T00:22:41.506Z,68.40
2019-05-01T00:25:11.134Z,69.03
2019-05-01T00:27:40.680Z,69.37
2019-05-01T00:30:11.993Z,68.08
2019-05-01T00:32:41.445Z,67.45
2019-05-01T00:35:10.916Z,67.06
2019-05-01T00:37:40.362Z,67.69
2019-05-01T00:40:10.082Z,66.50
2019-05-01T00:42:39.462Z,67.29
2019-05-01T00:45:08.978Z,67.00
2019-05-01T00:47:38.360Z,67.92
2019-05-01T00:50:08.822Z,67.21
2019-05-01T00:52:38.227Z,68.04
2019-05-01T00:55:25.742Z,68.26
2019-05-01T00:57:59.765Z,68.41
2019-05-01T01:00:42.576Z,67.87
2019-05-01T01:03:01.892Z,63.53
2019-05-01T01:05:31.282Z,64.60
2019-05-01T01:08:00.832Z,67.45
2019-05-01T01:10:30.221Z,69.42
2019-05-01T01:12:59.593Z,69.54
2019-05-01T01:15:28.989Z,70.02
2019-05-01T01:17:58.369Z,69.60
2019-05-01T01:20:27.752Z,71.21
2019-05-01T01:22:58.478Z,71.64
2019-05-01T01:25:27.846Z,71.02
2019-05-01T01:27:57.394Z,72.85
2019-05-01T01:30:26.820Z,72.17
2019-05-01T01:32:57.355Z,72.50
2019-05-01T01:35:26.796Z,72.76
2019-05-01T01:37:56.321Z,71.93
2019-05-01T01:40:25.851Z,70.05
2019-05-01T01:42:57.200Z,72.91
2019-05-01T01:45:29.965Z,73.27
2019-05-01T01:48:09.710Z,72.78
2019-05-01T01:50:42.037Z,74.74
2019-05-01T01:53:14.386Z,75.26
2019-05-01T01:55:44.404Z,75.20
2019-05-01T01:58:15.049Z,73.77
2019-05-01T02:01:09.232Z,73.67
2019-05-01T02:03:41.400Z,74.00
2019-05-01T02:06:11.527Z,73.25
2019-05-01T02:08:41.036Z,73.57
2019-05-01T02:11:10.966Z,73.34
2019-05-01T02:13:40.681Z,73.78
2019-05-01T02:16:10.142Z,75.00
2019-05-01T02:18:39.589Z,75.29
2019-05-01T02:21:09.051Z,75.53
2019-05-01T02:23:38.424Z,74.69
2019-05-01T02:26:09.923Z,75.26
2019-05-01T02:28:46.800Z,75.47
2019-05-01T02:31:27.143Z,71.03
2019-05-01T02:33:49.479Z,73.41
2019-05-01T02:36:21.380Z,75.05
2019-05-01T02:38:52.345Z,74.92
2019-05-01T02:41:24.112Z,76.39
2019-05-01T02:43:56.835Z,76.63
2019-05-01T02:46:28.927Z,75.53
2019-05-01T02:49:13.517Z,75.44
2019-05-01T02:51:45.598Z,75.24
2019-05-01T02:54:18.196Z,75.60
2019-05-01T02:56:50.874Z,76.48
2019-05-01T02:59:23.907Z,75.59
2019-05-01T03:01:55.201Z,75.35
2019-05-01T03:04:24.823Z,74.93
2019-05-01T03:06:54.442Z,74.71
2019-05-01T03:09:24.373Z,74.74
2019-05-01T03:11:56.624Z,75.18
2019-05-01T03:14:29.111Z,74.93
2019-05-01T03:17:02.963Z,73.36
2019-05-01T03:19:36.323Z,73.89
2019-05-01T03:22:07.976Z,75.00
2019-05-01T03:24:37.440Z,76.64
2019-05-01T03:27:07.064Z,76.90
2019-05-01T03:29:36.980Z,78.10
2019-05-01T03:32:17.816Z,78.53
2019-05-01T03:34:37.906Z,77.53
2019-05-01T03:37:07.393Z,78.16
2019-05-01T03:39:37.203Z,77.30
2019-05-01T03:42:06.751Z,77.62
2019-05-01T03:44:36.209Z,77.47
2019-05-01T03:47:05.582Z,76.75
2019-05-01T03:49:35.102Z,76.93
2019-05-01T03:52:04.644Z,76.45
2019-05-01T03:54:34.421Z,75.74
2019-05-01T03:57:04.442Z,77.00
2019-05-01T03:59:34.517Z,77.03
2019-05-01T04:02:32.841Z,76.48
2019-05-01T04:04:53.897Z,76.43
2019-05-01T04:07:23.904Z,76.25
2019-05-01T04:09:53.674Z,76.91
2019-05-01T04:12:23.701Z,75.76
2019-05-01T04:14:53.355Z,75.90
2019-05-01T04:17:27.051Z,75.85
2019-05-01T04:19:56.492Z,74.86
2019-05-01T04:22:26.023Z,72.81
2019-05-01T04:24:55.945Z,72.72
2019-05-01T04:27:27.406Z,76.08
2019-05-01T04:30:04.729Z,76.66
2019-05-01T04:32:50.800Z,77.52
2019-05-01T04:35:26.604Z,76.83
2019-05-01T04:37:57.236Z,76.23
2019-05-01T04:40:26.948Z,77.75
2019-05-01T04:42:56.883Z,76.92
2019-05-01T04:45:26.783Z,73.78
2019-05-01T04:47:56.721Z,73.69
2019-05-01T04:50:26.368Z,73.73
2019-05-01T04:52:55.923Z,74.29
2019-05-01T04:55:25.602Z,74.41
2019-05-01T04:57:55.671Z,74.20
2019-05-01T05:00:25.316Z,73.95
2019-05-01T05:03:04.489Z,74.31
2019-05-01T05:05:28.767Z,73.73
2019-05-01T05:07:58.587Z,72.23
2019-05-01T05:10:28.526Z,72.25
2019-05-01T05:12:59.789Z,71.09
2019-05-01T05:15:40.890Z,70.77
2019-05-01T05:18:10.412Z,70.32
2019-05-01T05:20:40.306Z,70.24
2019-05-01T05:23:09.824Z,68.47
2019-05-01T05:25:39.544Z,70.31
2019-05-01T05:28:10.175Z,66.80
2019-05-01T05:30:41.746Z,66.68
2019-05-01T05:33:18.618Z,68.98
2019-05-01T05:35:44.714Z,65.37
2019-05-01T05:38:18.256Z,65.86
2019-05-01T05:40:48.670Z,66.46
2019-05-01T05:43:18.407Z,64.99
2019-05-01T05:45:48.431Z,59.93
2019-05-01T05:48:17.998Z,61.67
2019-05-01T05:50:51.752Z,61.44
2019-05-01T05:53:26.829Z,60.17
2019-05-01T05:56:06.942Z,59.97
2019-05-01T05:58:43.853Z,60.01
2019-05-01T06:01:23.026Z,57.77
2019-05-01T06:03:56.693Z,59.27
2019-05-01T06:06:50.722Z,55.48
2019-05-01T06:09:24.780Z,57.45
2019-05-01T06:11:56.956Z,55.10
2019-05-01T06:14:45.866Z,54.28
2019-05-01T06:17:34.126Z,52.44
2019-05-01T06:20:12.933Z,53.18
2019-05-01T06:23:01.766Z,47.35
2019-05-01T06:25:33.230Z,49.94
2019-05-01T06:28:02.939Z,50.29
2019-05-01T06:30:32.453Z,46.65
2019-05-01T06:33:04.337Z,41.80
2019-05-01T06:35:33.997Z,44.75
2019-05-01T06:38:17.210Z,45.06
2019-05-01T06:40:53.015Z,42.19
2019-05-01T06:43:43.586Z,41.97
2019-05-01T06:46:14.354Z,40.13
2019-05-01T06:49:07.059Z,35.98
2019-05-01T06:51:55.163Z,38.15
2019-05-01T06:54:27.641Z,38.99
2019-05-01T06:56:57.682Z,36.91
2019-05-01T06:59:31.642Z,36.49
2019-05-01T07:02:01.311Z,34.90
2019-05-01T07:04:32.345Z,34.88
2019-05-01T07:07:06.770Z,36.00
2019-05-01T07:09:37.108Z,35.64
2019-05-01T07:12:08.576Z,38.91
2019-05-01T07:14:38.416Z,39.65
2019-05-01T07:17:08.912Z,40.23
2019-05-01T07:19:57.192Z,40.91
2019-05-01T07:22:26.825Z,35.32
2019-05-01T07:24:59.045Z,36.44
2019-05-01T07:27:27.494Z,39.77
2019-05-01T07:30:08.092Z,33.00
2019-05-01T07:32:41.215Z,32.47
2019-05-01T07:35:09.439Z,34.34
2019-05-01T07:37:40.235Z,33.94
2019-05-01T07:40:10.813Z,34.64
2019-05-01T07:42:43.701Z,31.17
2019-05-01T07:45:14.772Z,31.65
2019-05-01T07:47:46.034Z,33.62
2019-05-01T07:50:17.565Z,31.43
2019-05-01T07:52:52.080Z,32.92
2019-05-01T07:55:37.256Z,33.93
2019-05-01T07:58:10.423Z,31.38
2019-05-01T08:00:49.980Z,32.47
2019-05-01T08:03:19.493Z,32.72
2019-05-01T08:05:49.138Z,29.71
2019-05-01T08:08:18.600Z,30.93
2019-05-01T08:10:47.994Z,31.15
2019-05-01T08:13:17.448Z,32.76
2019-05-01T08:15:46.845Z,26.29
2019-05-01T08:18:17.919Z,29.55
2019-05-01T08:20:51.660Z,25.10
2019-05-01T08:23:21.037Z,26.60
2019-05-01T08:25:50.453Z,28.82
2019-05-01T08:28:21.476Z,25.02
2019-05-01T08:31:07.327Z,25.08
2019-05-01T08:33:39.320Z,28.29
2019-05-01T08:36:11.580Z,30.79
2019-05-01T08:38:41.019Z,28.24
2019-05-01T08:41:10.966Z,29.22
2019-05-01T08:43:41.188Z,30.18
2019-05-01T08:46:16.590Z,25.26
2019-05-01T08:48:47.756Z,26.16
2019-05-01T08:51:17.134Z,23.89
2019-05-01T08:53:46.533Z,25.64
2019-05-01T08:56:17.011Z,27.13
2019-05-01T08:58:49.383Z,25.99
2019-05-01T09:01:18.202Z,23.09
2019-05-01T09:03:49.754Z,26.42
2019-05-01T09:06:18.681Z,28.10
2019-05-01T09:08:48.061Z,26.55
2019-05-01T09:11:17.486Z,24.34
2019-05-01T09:13:46.874Z,28.01
2019-05-01T09:16:19.060Z,28.81
2019-05-01T09:18:47.585Z,26.82
2019-05-01T09:21:16.851Z,25.13
2019-05-01T09:23:51.224Z,28.51
2019-05-01T09:26:35.338Z,24.98
2019-05-01T09:29:06.503Z,23.54
2019-05-01T09:31:36.391Z,23.84
2019-05-01T09:34:09.212Z,22.93
2019-05-01T09:36:37.642Z,22.76
2019-05-01T09:39:09.984Z,21.62
2019-05-01T09:41:43.045Z,23.41
2019-05-01T09:44:11.954Z,19.72
2019-05-01T09:46:41.891Z,20.85
2019-05-01T09:49:14.207Z,22.77
2019-05-01T09:51:53.930Z,25.57
2019-05-01T09:54:36.825Z,20.77
2019-05-01T09:57:06.282Z,22.23
2019-05-01T09:59:35.672Z,24.15
2019-05-01T10:02:07.921Z,24.01
2019-05-01T10:04:36.525Z,23.16
2019-05-01T10:07:07.691Z,18.92
2019-05-01T10:09:37.147Z,22.89
2019-05-01T10:12:11.603Z,22.47
2019-05-01T10:14:37.942Z,22.88
2019-05-01T10:17:07.338Z,24.47
2019-05-01T10:19:36.811Z,22.33
2019-05-01T10:22:06.294Z,21.26
2019-05-01T10:24:37.526Z,23.91
2019-05-01T10:27:08.407Z,23.10
2019-05-01T10:29:56.833Z,21.77
2019-05-01T10:32:28.493Z,22.32
2019-05-01T10:34:59.595Z,22.54
2019-05-01T10:37:33.694Z,21.61
2019-05-01T10:40:00.312Z,19.67
2019-05-01T10:42:29.717Z,19.30
2019-05-01T10:44:59.101Z,20.27
2019-05-01T10:47:28.558Z,20.27
2019-05-01T10:49:57.946Z,20.08
2019-05-01T10:52:27.364Z,20.54
2019-05-01T10:54:56.737Z,20.63
2019-05-01T10:57:26.194Z,17.50
2019-05-01T10:59:55.585Z,17.50
2019-05-01T11:02:25.036Z,18.22
2019-05-01T11:04:55.391Z,15.49
2019-05-01T11:07:24.781Z,15.77
2019-05-01T11:09:54.177Z,19.91
2019-05-01T11:12:23.560Z,19.15
2019-05-01T11:14:52.952Z,18.23
2019-05-01T11:17:22.356Z,18.52
2019-05-01T11:19:51.750Z,19.04
2019-05-01T11:22:21.220Z,19.79
2019-05-01T11:24:50.667Z,19.64
2019-05-01T11:27:21.189Z,20.33
2019-05-01T11:29:50.586Z,19.19
2019-05-01T11:32:30.443Z,15.20
2019-05-01T11:35:01.470Z,18.60
2019-05-01T11:37:38.432Z,17.14
2019-05-01T11:40:13.892Z,19.95
2019-05-01T11:42:43.291Z,21.91
2019-05-01T11:45:12.806Z,19.16
2019-05-01T11:47:42.747Z,18.11
2019-05-01T11:50:12.780Z,17.30
2019-05-01T11:52:42.624Z,19.09
2019-05-01T11:55:12.722Z,18.82
2019-05-01T11:57:42.131Z,16.66
2019-05-01T12:00:14.076Z,19.10
2019-05-01T12:02:43.640Z,17.45
2019-05-01T12:05:14.090Z,17.74
2019-05-01T12:07:43.652Z,15.99
2019-05-01T12:10:15.069Z,16.73
2019-05-01T12:12:44.462Z,17.32
2019-05-01T12:15:15.771Z,13.14
2019-05-01T12:17:46.804Z,18.52
2019-05-01T12:20:17.023Z,16.92
2019-05-01T12:22:49.616Z,16.16
2019-05-01T12:25:17.633Z,18.86
2019-05-01T12:27:47.019Z,21.03
2019-05-01T12:30:17.915Z,16.87
2019-05-01T12:32:47.374Z,18.61
2019-05-01T12:35:16.891Z,18.72
2019-05-01T12:37:46.279Z,17.65
2019-05-01T12:40:16.911Z,19.06
2019-05-01T12:42:46.357Z,21.33
2019-05-01T12:45:16.593Z,20.13
2019-05-01T12:47:47.796Z,18.95
2019-05-01T12:50:18.835Z,20.15
2019-05-01T12:52:52.894Z,19.78
2019-05-01T12:55:30.894Z,17.56
2019-05-01T12:58:00.285Z,19.85
2019-05-01T13:00:45.376Z,17.63
2019-05-01T13:03:14.932Z,19.72
2019-05-01T13:05:44.308Z,18.56
2019-05-01T13:08:13.830Z,19.36
2019-05-01T13:10:43.211Z,22.62
2019-05-01T13:13:12.994Z,18.96
2019-05-01T13:15:42.971Z,19.30
2019-05-01T13:18:12.967Z,16.54
2019-05-01T13:20:43.042Z,21.69
2019-05-01T13:23:13.000Z,19.99
2019-05-01T13:25:43.432Z,20.62
2019-05-01T13:28:14.678Z,20.47
2019-05-01T13:30:46.072Z,20.01
2019-05-01T13:33:15.458Z,18.58
2019-05-01T13:35:44.851Z,20.64
2019-05-01T13:38:14.241Z,19.10
2019-05-01T13:40:43.701Z,18.51
2019-05-01T13:43:13.119Z,17.82
2019-05-01T13:45:43.054Z,16.13
2019-05-01T13:48:13.094Z,17.19
2019-05-01T13:50:43.163Z,16.77
2019-05-01T13:53:13.112Z,19.05
2019-05-01T13:55:42.578Z,20.18
2019-05-01T13:58:11.953Z,19.74
2019-05-01T14:00:41.578Z,19.04
2019-05-01T14:03:10.993Z,17.82
2019-05-01T14:05:40.464Z,18.58
2019-05-01T14:08:09.916Z,20.84
2019-05-01T14:10:39.328Z,18.61
2019-05-01T14:13:08.718Z,15.74
2019-05-01T14:15:38.111Z,18.39
2019-05-01T14:18:07.562Z,18.67
2019-05-01T14:20:45.107Z,20.37
2019-05-01T14:23:28.098Z,18.21
2019-05-01T14:26:05.326Z,18.75
2019-05-01T14:28:38.283Z,21.37
2019-05-01T14:31:07.663Z,22.61
2019-05-01T14:33:37.059Z,21.46
2019-05-01T14:36:06.514Z,18.97
2019-05-01T14:38:35.972Z,18.21
2019-05-01T14:41:06.326Z,18.77
2019-05-01T14:43:35.792Z,20.43
2019-05-01T14:46:05.602Z,20.74
2019-05-01T14:48:35.027Z,20.91
2019-05-01T14:51:05.034Z,18.79
2019-05-01T14:53:34.489Z,20.84
2019-05-01T14:56:04.139Z,19.85
2019-05-01T14:58:33.520Z,20.67
2019-05-01T15:01:02.912Z,19.96
2019-05-01T15:03:32.372Z,18.89
2019-05-01T15:06:01.758Z,19.44
2019-05-01T15:08:31.148Z,20.36
2019-05-01T15:11:00.625Z,19.63
2019-05-01T15:13:40.443Z,20.98
2019-05-01T15:16:17.190Z,19.76
2019-05-01T15:18:53.926Z,21.13
2019-05-01T15:21:23.324Z,21.90
2019-05-01T15:23:53.928Z,20.97
2019-05-01T15:26:23.392Z,23.42
2019-05-01T15:28:52.769Z,23.66
2019-05-01T15:31:22.148Z,25.23
2019-05-01T15:33:51.550Z,22.94
2019-05-01T15:36:20.929Z,23.77
2019-05-01T15:38:50.429Z,23.47
2019-05-01T15:41:37.730Z,22.52
2019-05-01T15:44:20.583Z,24.23
2019-05-01T15:46:50.218Z,24.54
2019-05-01T15:49:20.634Z,24.54
2019-05-01T15:51:50.079Z,25.19
2019-05-01T15:54:19.513Z,26.08
2019-05-01T15:56:48.910Z,25.84
2019-05-01T15:59:18.287Z,25.12
2019-05-01T16:01:48.864Z,25.79
2019-05-01T16:04:18.246Z,25.59
2019-05-01T16:06:47.777Z,25.98
2019-05-01T16:09:17.323Z,25.82
2019-05-01T16:11:57.086Z,26.60
2019-05-01T16:14:26.464Z,26.83
2019-05-01T16:16:55.869Z,28.05
2019-05-01T16:19:25.299Z,27.46
2019-05-01T16:21:54.864Z,27.00
2019-05-01T16:24:24.253Z,26.52
2019-05-01T16:26:53.638Z,27.31
2019-05-01T16:29:23.026Z,27.47
2019-05-01T16:31:52.414Z,27.10
2019-05-01T16:34:21.810Z,27.66
2019-05-01T16:36:51.194Z,28.53
2019-05-01T16:39:22.216Z,29.60
2019-05-01T16:41:51.602Z,30.15
2019-05-01T16:44:21.282Z,28.58
2019-05-01T16:46:50.692Z,28.86
2019-05-01T16:49:20.140Z,29.15
2019-05-01T16:51:49.538Z,29.11
2019-05-01T16:54:18.937Z,29.57
2019-05-01T16:56:48.387Z,28.68
2019-05-01T16:59:18.752Z,29.61
2019-05-01T17:01:49.913Z,30.12
2019-05-01T17:04:24.029Z,30.62
2019-05-01T17:07:03.903Z,29.81
2019-05-01T17:09:51.578Z,29.33
2019-05-01T17:12:22.618Z,30.28
2019-05-01T17:14:52.072Z,30.43
2019-05-01T17:17:23.164Z,29.76
2019-05-01T17:19:52.551Z,29.95
2019-05-01T17:22:21.939Z,30.76
2019-05-01T17:24:51.322Z,30.34
2019-05-01T17:27:20.729Z,30.86
2019-05-01T17:29:50.188Z,30.46
2019-05-01T17:32:19.898Z,29.65
2019-05-01T17:34:49.277Z,29.85
2019-05-01T17:37:18.671Z,30.29
2019-05-01T17:39:48.086Z,29.98
2019-05-01T17:42:17.480Z,29.99
2019-05-01T17:44:47.363Z,30.33
2019-05-01T17:47:17.920Z,30.33
2019-05-01T17:49:48.435Z,29.83
2019-05-01T17:52:17.837Z,31.23
2019-05-01T17:54:47.617Z,30.67
2019-05-01T17:57:17.475Z,30.80
2019-05-01T17:59:49.210Z,30.69
2019-05-01T18:02:20.250Z,30.69
2019-05-01T18:05:03.312Z,31.96
2019-05-01T18:07:34.721Z,33.28
2019-05-01T18:10:06.473Z,32.90
2019-05-01T18:12:36.861Z,33.57
2019-05-01T18:15:09.646Z,33.04
2019-05-01T18:17:40.103Z,34.78
2019-05-01T18:20:09.966Z,34.78
2019-05-01T18:22:50.301Z,33.57
2019-05-01T18:25:33.197Z,32.65
2019-05-01T18:28:12.616Z,33.90
2019-05-01T18:30:43.712Z,33.12
2019-05-01T18:33:13.188Z,32.74
2019-05-01T18:35:44.904Z,32.41
2019-05-01T18:38:31.430Z,32.81
2019-05-01T18:41:11.946Z,33.56
2019-05-01T18:43:41.322Z,33.88
2019-05-01T18:46:13.127Z,34.13
2019-05-01T18:48:43.153Z,34.24
2019-05-01T18:51:12.561Z,34.27
2019-05-01T18:53:42.642Z,33.32
2019-05-01T18:56:12.349Z,33.33
2019-05-01T18:58:42.409Z,33.41
2019-05-01T19:01:12.764Z,35.63
2019-05-01T19:03:44.149Z,35.57
2019-05-01T19:06:13.944Z,36.14
2019-05-01T19:08:43.411Z,35.69
2019-05-01T19:11:13.903Z,36.45
2019-05-01T19:13:43.495Z,36.41
2019-05-01T19:16:13.575Z,37.21
2019-05-01T19:18:43.652Z,37.74
2019-05-01T19:21:15.587Z,37.74
2019-05-01T19:23:45.000Z,37.58
2019-05-01T19:26:15.054Z,37.59
2019-05-01T19:28:44.638Z,37.78
2019-05-01T19:31:15.098Z,38.42
2019-05-01T19:33:45.294Z,38.18
2019-05-01T19:36:15.472Z,38.12
2019-05-01T19:38:45.666Z,38.29
2019-05-01T19:41:16.037Z,37.78
2019-05-01T19:43:46.373Z,37.72
2019-05-01T19:46:16.640Z,37.66
2019-05-01T19:48:50.890Z,36.49
2019-05-01T19:51:23.974Z,36.30
2019-05-01T19:53:51.576Z,36.63
2019-05-01T19:56:22.733Z,36.19
2019-05-01T19:58:53.143Z,36.83
2019-05-01T20:01:22.600Z,36.74
2019-05-01T20:03:53.665Z,36.77
2019-05-01T20:06:23.177Z,36.79
2019-05-01T20:08:56.049Z,36.22
2019-05-01T20:11:27.318Z,37.24
2019-05-01T20:13:57.129Z,37.03
2019-05-01T20:16:30.046Z,36.38
2019-05-01T20:19:00.276Z,36.02
2019-05-01T20:21:30.755Z,35.49
2019-05-01T20:24:04.333Z,35.91
2019-05-01T20:26:33.886Z,35.26
2019-05-01T20:29:04.390Z,34.76
2019-05-01T20:31:33.858Z,35.02
2019-05-01T20:34:04.914Z,35.20
2019-05-01T20:36:34.540Z,35.58
2019-05-01T20:39:06.855Z,35.64
2019-05-01T20:41:37.316Z,35.56
2019-05-01T20:44:06.700Z,35.30
2019-05-01T20:46:36.188Z,36.11
2019-05-01T20:49:06.796Z,37.91
2019-05-01T20:51:36.385Z,38.44
2019-05-01T20:54:05.912Z,40.24
2019-05-01T20:56:36.943Z,39.85
2019-05-01T20:59:06.329Z,40.88
2019-05-01T21:01:35.798Z,41.36
2019-05-01T21:04:09.766Z,41.67
2019-05-01T21:06:57.859Z,41.87
2019-05-01T21:09:31.607Z,42.34
2019-05-01T21:12:05.403Z,42.47
2019-05-01T21:14:33.473Z,41.91
2019-05-01T21:17:02.922Z,42.69
2019-05-01T21:19:33.570Z,44.52
2019-05-01T21:22:04.121Z,43.84
2019-05-01T21:24:34.379Z,42.97
2019-05-01T21:27:03.932Z,42.05
2019-05-01T21:29:34.334Z,43.10
2019-05-01T21:32:04.128Z,43.20
2019-05-01T21:34:33.510Z,43.14
2019-05-01T21:37:02.904Z,42.58
2019-05-01T21:39:33.528Z,42.15
2019-05-01T21:42:04.725Z,42.45
2019-05-01T21:44:34.242Z,42.55
2019-05-01T21:47:04.047Z,43.47
2019-05-01T21:49:34.438Z,45.97
2019-05-01T21:52:07.103Z,46.56
2019-05-01T21:54:35.678Z,46.87
2019-05-01T21:57:05.489Z,46.05
2019-05-01T21:59:35.315Z,46.40
2019-05-01T22:02:09.975Z,46.30
2019-05-01T22:04:36.616Z,48.16
2019-05-01T22:07:06.530Z,49.01
2019-05-01T22:09:36.546Z,48.17
2019-05-01T22:12:08.361Z,48.38
2019-05-01T22:14:48.102Z,46.85
2019-05-01T22:17:19.247Z,44.43
2019-05-01T22:19:48.786Z,46.13
2019-05-01T22:22:25.955Z,43.99
2019-05-01T22:25:13.058Z,43.33
2019-05-01T22:27:49.839Z,43.41
2019-05-01T22:30:21.126Z,43.52
2019-05-01T22:32:52.167Z,42.42
2019-05-01T22:35:34.783Z,41.87
2019-05-01T22:38:05.723Z,42.09
2019-05-01T22:41:04.760Z,41.19
2019-05-01T22:43:25.982Z,41.70
2019-05-01T22:45:56.405Z,42.96
2019-05-01T22:48:26.655Z,41.93
2019-05-01T22:50:57.694Z,43.97
2019-05-01T22:53:27.073Z,42.86
2019-05-01T22:55:57.307Z,42.64
2019-05-01T22:58:27.609Z,41.57
2019-05-01T23:00:58.790Z,42.50
2019-05-01T23:03:40.811Z,40.93
2019-05-01T23:06:07.884Z,40.90
2019-05-01T23:08:37.501Z,39.34
2019-05-01T23:11:19.236Z,41.61
2019-05-01T23:13:38.747Z,41.02
2019-05-01T23:16:08.280Z,42.16
2019-05-01T23:18:37.674Z,41.15
2019-05-01T23:21:09.926Z,43.15
2019-05-01T23:23:38.281Z,43.46
2019-05-01T23:26:11.779Z,41.16
2019-05-01T23:28:39.847Z,42.48
2019-05-01T23:31:10.024Z,44.89
2019-05-01T23:33:39.483Z,44.81
2019-05-01T23:36:08.878Z,44.58
2019-05-01T23:38:38.322Z,44.62
2019-05-01T23:41:07.790Z,44.49
2019-05-01T23:43:38.146Z,44.65
2019-05-01T23:46:07.676Z,45.18
2019-05-01T23:48:37.142Z,45.20
2019-05-01T23:51:06.516Z,46.25
2019-05-01T23:53:35.913Z,46.29
2019-05-01T23:56:05.374Z,45.67
2019-05-01T23:58:34.778Z,46.51
